createdAt,value
2022-07-25T00:00:18.530Z,17.93
2022-07-25T00:02:45.912Z,17.95
2022-07-25T00:05:12.298Z,17.97
2022-07-25T00:07:38.648Z,18.00
2022-07-25T00:10:05.519Z,18.11
2022-07-25T00:12:32.033Z,18.30
2022-07-25T00:14:58.404Z,18.35
2022-07-25T00:17:24.820Z,18.26
2022-07-25T00:19:51.277Z,18.35
2022-07-25T00:22:17.639Z,18.39
2022-07-25T00:24:43.989Z,18.46
2022-07-25T00:27:10.433Z,18.60
2022-07-25T00:29:37.037Z,18.68
2022-07-25T00:32:03.677Z,18.86
2022-07-25T00:34:30.089Z,18.99
2022-07-25T00:36:56.493Z,19.09
2022-07-25T00:39:23.028Z,19.12
2022-07-25T00:41:49.420Z,19.15
2022-07-25T00:44:29.834Z,19.22
2022-07-25T00:46:57.447Z,19.35
2022-07-25T00:49:24.514Z,19.49
2022-07-25T00:51:52.031Z,19.51
2022-07-25T00:54:19.043Z,19.48
2022-07-25T00:56:46.030Z,19.39
2022-07-25T00:59:12.443Z,19.43
2022-07-25T01:01:39.216Z,19.42
2022-07-25T01:04:06.745Z,19.44
2022-07-25T01:06:33.417Z,19.43
2022-07-25T01:09:00.003Z,19.38
2022-07-25T01:11:26.501Z,19.40
2022-07-25T01:13:52.994Z,19.43
2022-07-25T01:16:19.484Z,19.44
2022-07-25T01:18:45.847Z,19.43
2022-07-25T01:21:12.301Z,19.51
2022-07-25T01:23:38.675Z,19.59
2022-07-25T01:26:05.146Z,19.53
2022-07-25T01:28:31.878Z,19.57
2022-07-25T01:30:58.367Z,19.66
2022-07-25T01:33:24.797Z,19.65
2022-07-25T01:35:51.748Z,19.65
2022-07-25T01:38:18.183Z,19.64
2022-07-25T01:40:44.697Z,19.72
2022-07-25T01:43:11.905Z,19.68
2022-07-25T01:45:38.345Z,19.72
2022-07-25T01:48:04.837Z,19.76
2022-07-25T01:50:31.217Z,19.70
2022-07-25T01:52:57.592Z,19.70
2022-07-25T01:55:23.985Z,19.65
2022-07-25T01:57:51.740Z,19.58
2022-07-25T02:00:18.872Z,19.54
2022-07-25T02:02:45.676Z,19.52
2022-07-25T02:05:14.013Z,19.48
2022-07-25T02:07:40.534Z,19.38
2022-07-25T02:10:07.838Z,19.33
2022-07-25T02:12:34.328Z,19.30
2022-07-25T02:15:00.691Z,19.29
2022-07-25T02:17:27.145Z,19.31
2022-07-25T02:19:53.568Z,19.39
2022-07-25T02:22:19.914Z,19.42
2022-07-25T02:24:46.288Z,19.41
2022-07-25T02:27:12.679Z,19.41
2022-07-25T02:29:39.049Z,19.37
2022-07-25T02:32:05.904Z,19.27
2022-07-25T02:34:32.253Z,19.30
2022-07-25T02:36:58.613Z,19.21
2022-07-25T02:39:25.282Z,19.25
2022-07-25T02:41:51.695Z,19.21
2022-07-25T02:44:18.038Z,19.25
2022-07-25T02:46:44.453Z,19.29
2022-07-25T02:49:11.692Z,19.30
2022-07-25T02:51:38.172Z,19.15
2022-07-25T02:54:04.581Z,19.16
2022-07-25T02:56:33.042Z,19.18
2022-07-25T02:58:59.468Z,19.15
2022-07-25T03:01:25.922Z,19.19
2022-07-25T03:03:52.588Z,19.13
2022-07-25T03:06:19.009Z,19.10
2022-07-25T03:08:45.381Z,19.05
2022-07-25T03:11:13.165Z,19.12
2022-07-25T03:13:39.510Z,19.09
2022-07-25T03:16:06.515Z,19.12
2022-07-25T03:18:32.864Z,19.10
2022-07-25T03:21:00.504Z,19.10
2022-07-25T03:23:28.099Z,19.09
2022-07-25T03:25:55.496Z,19.03
2022-07-25T03:28:21.937Z,19.11
2022-07-25T03:30:48.303Z,19.11
2022-07-25T03:33:14.654Z,19.02
2022-07-25T03:35:41.166Z,19.08
2022-07-25T03:38:07.683Z,19.17
2022-07-25T03:40:34.159Z,19.18
2022-07-25T03:43:00.581Z,19.18
2022-07-25T03:45:26.973Z,19.19
2022-07-25T03:47:53.378Z,19.23
2022-07-25T03:50:19.860Z,19.24
2022-07-25T03:52:46.270Z,19.31
2022-07-25T03:55:12.681Z,19.40
2022-07-25T03:57:39.460Z,19.40
2022-07-25T04:00:09.158Z,19.44
2022-07-25T04:02:37.530Z,19.46
2022-07-25T04:05:06.028Z,19.44
2022-07-25T04:07:32.365Z,19.47
2022-07-25T04:09:59.061Z,19.42
2022-07-25T04:12:25.423Z,19.47
2022-07-25T04:14:51.821Z,19.47
2022-07-25T04:17:18.215Z,19.46
2022-07-25T04:19:45.580Z,19.43
2022-07-25T04:22:11.954Z,19.48
2022-07-25T04:24:38.454Z,19.43
2022-07-25T04:27:04.811Z,19.44
2022-07-25T04:29:31.352Z,19.44
2022-07-25T04:31:58.063Z,19.54
2022-07-25T04:34:24.522Z,19.59
2022-07-25T04:36:50.909Z,19.67
2022-07-25T04:39:17.355Z,19.73
2022-07-25T04:41:43.676Z,19.72
2022-07-25T04:44:10.182Z,19.75
2022-07-25T04:46:36.589Z,19.80
2022-07-25T04:49:03.095Z,19.84
2022-07-25T04:51:29.564Z,19.93
2022-07-25T04:53:55.986Z,19.97
2022-07-25T04:56:22.414Z,20.08
2022-07-25T04:58:49.248Z,20.23
2022-07-25T05:01:15.657Z,20.41
2022-07-25T05:03:42.169Z,20.58
2022-07-25T05:06:17.409Z,20.79
2022-07-25T05:08:43.776Z,21.03
2022-07-25T05:11:10.184Z,21.13
2022-07-25T05:13:36.531Z,21.22
2022-07-25T05:16:03.136Z,21.21
2022-07-25T05:18:29.685Z,21.21
2022-07-25T05:20:56.036Z,21.19
2022-07-25T05:23:22.371Z,21.30
2022-07-25T05:25:49.257Z,21.27
2022-07-25T05:28:17.548Z,21.37
2022-07-25T05:30:43.981Z,21.51
2022-07-25T05:33:10.368Z,21.62
2022-07-25T05:35:36.763Z,21.67
2022-07-25T05:38:03.651Z,21.90
2022-07-25T05:40:30.314Z,22.16
2022-07-25T05:43:02.411Z,22.28
2022-07-25T05:45:29.583Z,22.42
2022-07-25T05:47:55.955Z,22.47
2022-07-25T05:50:22.369Z,22.44
2022-07-25T05:52:48.836Z,22.36
2022-07-25T05:55:15.779Z,22.49
2022-07-25T05:57:42.219Z,22.68
2022-07-25T06:00:09.308Z,22.71
2022-07-25T06:02:35.768Z,22.77
2022-07-25T06:05:02.817Z,22.83
2022-07-25T06:07:29.177Z,22.89
2022-07-25T06:09:55.553Z,22.85
2022-07-25T06:12:21.936Z,22.73
2022-07-25T06:14:50.883Z,22.72
2022-07-25T06:17:17.246Z,23.03
2022-07-25T06:19:43.639Z,23.30
2022-07-25T06:22:11.187Z,23.50
2022-07-25T06:24:38.161Z,23.66
2022-07-25T06:27:04.843Z,24.01
2022-07-25T06:29:31.209Z,24.25
2022-07-25T06:31:57.677Z,24.34
2022-07-25T06:34:28.496Z,24.11
2022-07-25T06:36:55.120Z,23.77
2022-07-25T06:39:21.506Z,23.71
2022-07-25T06:41:47.938Z,23.99
2022-07-25T06:44:14.445Z,24.13
2022-07-25T06:46:41.161Z,24.39
2022-07-25T06:49:07.724Z,24.43
2022-07-25T06:51:34.417Z,24.63
2022-07-25T06:54:00.811Z,24.90
2022-07-25T06:56:31.284Z,25.01
2022-07-25T06:58:58.612Z,25.29
2022-07-25T07:01:25.078Z,25.59
2022-07-25T07:03:51.754Z,25.53
2022-07-25T07:06:18.297Z,25.18
2022-07-25T07:08:44.701Z,25.06
2022-07-25T07:11:15.194Z,25.15
2022-07-25T07:13:41.593Z,25.24
2022-07-25T07:16:08.636Z,25.42
2022-07-25T07:18:35.261Z,25.38
2022-07-25T07:21:01.713Z,25.49
2022-07-25T07:23:29.066Z,25.59
2022-07-25T07:25:56.415Z,25.85
2022-07-25T07:28:23.081Z,25.90
2022-07-25T07:31:15.364Z,26.21
2022-07-25T07:33:37.935Z,26.05
2022-07-25T07:36:04.583Z,26.03
2022-07-25T07:38:30.940Z,26.19
2022-07-25T07:40:57.308Z,26.46
2022-07-25T07:43:29.199Z,26.47
2022-07-25T07:45:56.592Z,26.52
2022-07-25T07:48:22.999Z,26.62
2022-07-25T07:50:49.398Z,26.61
2022-07-25T07:53:15.743Z,26.44
2022-07-25T07:55:55.307Z,26.76
2022-07-25T07:58:21.970Z,27.13
2022-07-25T08:00:51.429Z,27.35
2022-07-25T08:03:20.705Z,27.59
2022-07-25T08:05:48.934Z,27.26
2022-07-25T08:08:15.898Z,27.30
2022-07-25T08:10:45.771Z,27.41
2022-07-25T08:13:24.005Z,27.39
2022-07-25T08:15:57.763Z,27.61
2022-07-25T08:18:25.915Z,27.82
2022-07-25T08:20:53.106Z,27.92
2022-07-25T08:23:19.834Z,27.95
2022-07-25T08:25:46.839Z,28.12
2022-07-25T08:28:14.246Z,28.11
2022-07-25T08:30:41.661Z,28.17
2022-07-25T08:33:10.843Z,28.18
2022-07-25T08:35:37.539Z,28.15
2022-07-25T08:38:04.742Z,28.11
2022-07-25T08:40:32.576Z,27.87
2022-07-25T08:42:59.549Z,28.14
2022-07-25T08:45:28.465Z,28.27
2022-07-25T08:47:55.589Z,28.08
2022-07-25T08:50:28.404Z,28.47
2022-07-25T08:53:16.293Z,28.56
2022-07-25T08:55:43.454Z,28.83
2022-07-25T08:58:11.045Z,28.77
2022-07-25T09:00:37.446Z,28.66
2022-07-25T09:03:06.320Z,28.57
2022-07-25T09:05:34.512Z,28.62
2022-07-25T09:08:14.690Z,29.01
2022-07-25T09:10:49.245Z,29.13
2022-07-25T09:13:16.808Z,29.36
2022-07-25T09:15:56.465Z,29.57
2022-07-25T09:18:24.693Z,29.66
2022-07-25T09:20:54.289Z,29.52
2022-07-25T09:23:35.028Z,29.67
2022-07-25T09:26:10.446Z,29.72
2022-07-25T09:28:51.293Z,29.64
2022-07-25T09:31:21.493Z,29.66
2022-07-25T09:33:51.597Z,29.62
2022-07-25T09:36:18.099Z,29.41
2022-07-25T09:39:00.533Z,29.40
2022-07-25T09:41:34.951Z,29.47
2022-07-25T09:44:01.454Z,29.74
2022-07-25T09:46:32.398Z,30.20
2022-07-25T09:49:00.422Z,30.45
2022-07-25T09:51:28.672Z,30.08
2022-07-25T09:53:55.093Z,30.22
2022-07-25T09:56:21.451Z,30.34
2022-07-25T09:58:47.817Z,30.09
2022-07-25T10:01:21.497Z,30.19
2022-07-25T10:03:54.183Z,30.17
2022-07-25T10:06:40.795Z,30.25
2022-07-25T10:09:13.805Z,30.25
2022-07-25T10:11:40.541Z,30.48
2022-07-25T10:14:12.449Z,30.28
2022-07-25T10:16:46.784Z,30.43
2022-07-25T10:19:13.412Z,30.40
2022-07-25T10:21:39.955Z,30.40
2022-07-25T10:24:09.729Z,30.35
2022-07-25T10:26:41.118Z,30.60
2022-07-25T10:29:09.632Z,30.41
2022-07-25T10:31:39.588Z,30.45
2022-07-25T10:34:08.772Z,30.53
2022-07-25T10:36:47.862Z,30.52
2022-07-25T10:39:16.946Z,30.61
2022-07-25T10:41:50.353Z,30.42
2022-07-25T10:44:16.747Z,30.57
2022-07-25T10:46:44.802Z,30.67
2022-07-25T10:49:32.094Z,30.72
2022-07-25T10:52:03.114Z,30.79
2022-07-25T10:54:38.424Z,30.75
2022-07-25T10:57:06.813Z,30.75
2022-07-25T10:59:39.355Z,30.78
2022-07-25T11:02:09.413Z,30.91
2022-07-25T11:04:36.270Z,30.78
2022-07-25T11:07:14.772Z,30.73
2022-07-25T11:09:43.731Z,30.82
2022-07-25T11:12:14.915Z,30.65
2022-07-25T11:14:43.325Z,30.74
2022-07-25T11:17:23.947Z,30.77
2022-07-25T11:20:03.491Z,30.62
2022-07-25T11:22:31.925Z,30.59
2022-07-25T11:24:59.432Z,30.17
2022-07-25T11:27:31.630Z,30.17
2022-07-25T11:30:11.260Z,30.37
2022-07-25T11:32:43.090Z,30.03
2022-07-25T11:35:11.346Z,30.14
2022-07-25T11:37:41.498Z,30.11
2022-07-25T11:40:09.947Z,29.89
2022-07-25T11:43:03.790Z,29.99
2022-07-25T11:45:39.856Z,29.97
2022-07-25T11:48:08.787Z,30.11
2022-07-25T11:50:37.791Z,30.27
2022-07-25T11:53:10.029Z,30.17
2022-07-25T11:55:42.774Z,30.32
2022-07-25T11:58:11.295Z,30.40
2022-07-25T12:00:43.353Z,30.50
2022-07-25T12:03:19.595Z,30.40
2022-07-25T12:05:48.064Z,30.34
2022-07-25T12:08:20.770Z,30.57
2022-07-25T12:10:49.070Z,30.55
2022-07-25T12:13:29.372Z,30.43
2022-07-25T12:15:58.253Z,30.56
2022-07-25T12:18:24.813Z,30.77
2022-07-25T12:20:51.291Z,31.24
2022-07-25T12:23:18.626Z,31.40
2022-07-25T12:25:46.735Z,31.30
2022-07-25T12:28:14.069Z,31.51
2022-07-25T12:30:42.294Z,31.75
2022-07-25T12:33:09.645Z,32.03
2022-07-25T12:35:38.817Z,32.15
2022-07-25T12:38:05.268Z,31.97
2022-07-25T12:40:32.237Z,32.04
2022-07-25T12:42:59.290Z,31.90
2022-07-25T12:45:25.918Z,31.63
2022-07-25T12:47:52.280Z,31.45
2022-07-25T12:50:18.677Z,31.54
2022-07-25T12:52:46.051Z,31.64
2022-07-25T12:55:15.940Z,31.21
2022-07-25T12:57:42.816Z,31.24
2022-07-25T13:00:12.808Z,31.33
2022-07-25T13:02:39.666Z,31.59
2022-07-25T13:05:07.254Z,31.40
2022-07-25T13:07:34.455Z,31.22
2022-07-25T13:10:01.806Z,30.95
2022-07-25T13:12:28.275Z,30.81
2022-07-25T13:14:54.824Z,30.57
2022-07-25T13:17:25.064Z,30.38
2022-07-25T13:19:54.427Z,30.25
2022-07-25T13:22:20.824Z,30.12
2022-07-25T13:24:47.173Z,30.00
2022-07-25T13:27:13.532Z,30.20
2022-07-25T13:29:39.875Z,30.43
2022-07-25T13:32:07.180Z,30.71
2022-07-25T13:34:33.589Z,30.69
2022-07-25T13:36:59.940Z,30.68
2022-07-25T13:39:27.054Z,30.57
2022-07-25T13:41:53.557Z,30.57
2022-07-25T13:44:20.181Z,30.48
2022-07-25T13:46:49.837Z,30.41
2022-07-25T13:49:17.517Z,30.35
2022-07-25T13:51:45.363Z,30.53
2022-07-25T13:54:12.770Z,30.61
2022-07-25T13:56:40.469Z,30.48
2022-07-25T13:59:07.178Z,30.46
2022-07-25T14:01:34.271Z,30.32
2022-07-25T14:04:00.757Z,30.39
2022-07-25T14:06:27.624Z,30.40
2022-07-25T14:08:54.016Z,30.20
2022-07-25T14:11:20.363Z,30.25
2022-07-25T14:13:47.640Z,30.23
2022-07-25T14:16:16.413Z,30.38
2022-07-25T14:18:42.821Z,30.24
2022-07-25T14:21:09.191Z,30.12
2022-07-25T14:23:35.557Z,29.91
2022-07-25T14:26:02.317Z,29.93
2022-07-25T14:28:29.379Z,29.67
2022-07-25T14:30:55.884Z,29.16
2022-07-25T14:33:22.344Z,28.89
2022-07-25T14:35:48.767Z,28.50
2022-07-25T14:38:15.458Z,28.14
2022-07-25T14:40:43.927Z,27.56
2022-07-25T14:43:10.666Z,27.19
2022-07-25T14:45:37.175Z,27.01
2022-07-25T14:48:06.771Z,26.47
2022-07-25T14:50:33.391Z,26.26
2022-07-25T14:52:59.762Z,26.13
2022-07-25T14:55:26.893Z,25.43
2022-07-25T14:57:53.227Z,25.14
2022-07-25T15:00:19.709Z,24.81
2022-07-25T15:02:46.134Z,24.91
2022-07-25T15:05:12.599Z,24.95
2022-07-25T15:07:39.171Z,24.63
2022-07-25T15:10:06.486Z,24.27
2022-07-25T15:12:32.887Z,24.02
2022-07-25T15:14:59.286Z,23.59
2022-07-25T15:17:25.768Z,23.51
2022-07-25T15:19:52.133Z,23.47
2022-07-25T15:22:18.528Z,23.33
2022-07-25T15:25:21.369Z,23.10
2022-07-25T15:27:31.960Z,22.64
2022-07-25T15:29:58.319Z,22.39
2022-07-25T15:32:24.647Z,22.34
2022-07-25T15:34:50.989Z,22.30
2022-07-25T15:37:17.332Z,22.22
2022-07-25T15:39:45.255Z,22.26
2022-07-25T15:42:11.914Z,22.01
2022-07-25T15:44:38.270Z,21.97
2022-07-25T15:47:07.135Z,21.84
2022-07-25T15:49:33.729Z,21.47
2022-07-25T15:52:00.248Z,21.06
2022-07-25T15:54:29.506Z,20.58
2022-07-25T15:56:56.286Z,20.25
2022-07-25T15:59:22.681Z,20.02
2022-07-25T16:01:49.093Z,19.76
2022-07-25T16:04:15.606Z,19.36
2022-07-25T16:06:42.125Z,19.27
2022-07-25T16:09:08.704Z,19.11
2022-07-25T16:11:38.112Z,18.93
2022-07-25T16:14:05.311Z,18.83
2022-07-25T16:16:31.833Z,18.72
2022-07-25T16:18:58.309Z,18.61
2022-07-25T16:21:24.716Z,18.60
2022-07-25T16:23:51.083Z,18.47
2022-07-25T16:26:17.610Z,18.32
2022-07-25T16:28:44.163Z,18.28
2022-07-25T16:31:10.726Z,18.39
2022-07-25T16:33:37.558Z,18.35
2022-07-25T16:36:04.851Z,18.31
2022-07-25T16:38:31.685Z,18.35
2022-07-25T16:40:58.073Z,18.44
2022-07-25T16:43:24.721Z,18.59
2022-07-25T16:45:51.380Z,18.64
2022-07-25T16:48:17.747Z,18.37
2022-07-25T16:50:44.101Z,18.61
2022-07-25T16:53:10.532Z,18.49
2022-07-25T16:55:36.917Z,18.65
2022-07-25T16:58:03.489Z,18.80
2022-07-25T17:00:30.123Z,18.67
2022-07-25T17:02:56.528Z,18.83
2022-07-25T17:05:22.975Z,18.91
2022-07-25T17:07:57.101Z,18.80
2022-07-25T17:10:25.590Z,18.73
2022-07-25T17:12:51.958Z,18.90
2022-07-25T17:15:18.341Z,19.03
2022-07-25T17:17:44.751Z,18.99
2022-07-25T17:20:11.603Z,19.01
2022-07-25T17:22:38.753Z,19.16
2022-07-25T17:25:05.893Z,18.99
2022-07-25T17:27:32.399Z,19.06
2022-07-25T17:29:58.785Z,19.31
2022-07-25T17:32:29.352Z,19.34
2022-07-25T17:34:56.291Z,19.26
2022-07-25T17:37:24.151Z,19.15
2022-07-25T17:39:50.536Z,19.28
2022-07-25T17:42:22.012Z,19.16
2022-07-25T17:44:52.487Z,19.21
2022-07-25T17:47:19.665Z,19.43
2022-07-25T17:49:46.355Z,19.59
2022-07-25T17:52:12.861Z,19.44
2022-07-25T17:54:42.501Z,19.57
2022-07-25T17:57:09.333Z,19.35
2022-07-25T17:59:35.867Z,19.39
2022-07-25T18:02:03.471Z,19.40
2022-07-25T18:04:30.016Z,19.35
2022-07-25T18:06:56.572Z,19.40
2022-07-25T18:09:24.057Z,19.25
2022-07-25T18:11:50.777Z,19.23
2022-07-25T18:14:17.205Z,19.33
2022-07-25T18:16:45.242Z,19.30
2022-07-25T18:19:11.843Z,19.27
2022-07-25T18:21:38.264Z,19.14
2022-07-25T18:24:05.671Z,19.17
2022-07-25T18:26:33.133Z,19.01
2022-07-25T18:28:59.548Z,18.94
2022-07-25T18:31:26.051Z,18.97
2022-07-25T18:33:52.460Z,19.12
2022-07-25T18:36:18.962Z,19.11
2022-07-25T18:38:45.826Z,18.87
2022-07-25T18:41:28.821Z,18.82
2022-07-25T18:43:56.266Z,18.94
2022-07-25T18:46:23.521Z,18.74
2022-07-25T18:48:50.112Z,18.70
2022-07-25T18:51:16.818Z,18.59
2022-07-25T18:53:47.691Z,18.45
2022-07-25T18:56:14.617Z,18.44
2022-07-25T18:58:41.134Z,18.32
2022-07-25T19:01:08.928Z,18.18
2022-07-25T19:03:37.275Z,18.28
2022-07-25T19:06:04.472Z,18.29
2022-07-25T19:08:32.309Z,18.18
2022-07-25T19:10:58.726Z,18.27
2022-07-25T19:13:47.745Z,18.16
2022-07-25T19:16:11.801Z,18.26
2022-07-25T19:18:39.375Z,18.19
2022-07-25T19:21:06.135Z,18.20
2022-07-25T19:23:32.587Z,18.22
2022-07-25T19:26:00.386Z,18.20
2022-07-25T19:28:28.735Z,18.05
2022-07-25T19:30:56.324Z,18.04
2022-07-25T19:33:22.848Z,17.99
2022-07-25T19:35:49.432Z,17.95
2022-07-25T19:38:15.833Z,17.92
2022-07-25T19:40:42.828Z,17.94
2022-07-25T19:43:09.231Z,17.89
2022-07-25T19:45:36.257Z,17.85
2022-07-25T19:48:02.704Z,17.83
2022-07-25T19:50:29.166Z,17.75
2022-07-25T19:52:55.746Z,17.77
2022-07-25T19:55:22.267Z,17.80
2022-07-25T19:57:48.662Z,17.79
2022-07-25T20:00:15.530Z,17.82
2022-07-25T20:02:41.954Z,17.68
2022-07-25T20:05:10.006Z,17.64
2022-07-25T20:07:36.451Z,17.60
2022-07-25T20:10:04.302Z,17.55
2022-07-25T20:12:33.578Z,17.55
2022-07-25T20:15:00.048Z,17.56
2022-07-25T20:17:26.693Z,17.54
2022-07-25T20:19:53.200Z,17.48
2022-07-25T20:22:20.000Z,17.50
2022-07-25T20:24:46.422Z,17.46
2022-07-25T20:27:12.810Z,17.37
2022-07-25T20:29:39.220Z,17.27
2022-07-25T20:32:05.878Z,17.19
2022-07-25T20:34:32.561Z,17.14
2022-07-25T20:36:58.962Z,17.15
2022-07-25T20:39:26.286Z,17.14
2022-07-25T20:41:55.176Z,17.07
2022-07-25T20:44:21.645Z,17.04
2022-07-25T20:46:47.991Z,17.00
2022-07-25T20:49:14.449Z,16.91
2022-07-25T20:51:40.985Z,16.90
2022-07-25T20:54:07.763Z,16.85
2022-07-25T20:56:34.181Z,16.85
2022-07-25T20:59:00.714Z,16.85
2022-07-25T21:01:27.235Z,16.81
2022-07-25T21:03:53.775Z,16.81
2022-07-25T21:06:20.157Z,16.76
2022-07-25T21:08:53.699Z,16.74
2022-07-25T21:11:20.310Z,16.71
2022-07-25T21:13:46.697Z,16.63
2022-07-25T21:16:13.274Z,16.67
2022-07-25T21:18:39.856Z,16.64
2022-07-25T21:21:10.336Z,16.66
2022-07-25T21:23:38.812Z,16.62
2022-07-25T21:26:05.592Z,16.51
2022-07-25T21:28:31.959Z,16.51
2022-07-25T21:30:58.307Z,16.48
2022-07-25T21:33:24.739Z,16.48
2022-07-25T21:35:53.739Z,16.41
2022-07-25T21:38:27.633Z,16.47
2022-07-25T21:40:56.821Z,16.40
2022-07-25T21:43:23.839Z,16.36
2022-07-25T21:45:50.322Z,16.33
2022-07-25T21:48:16.688Z,16.29
2022-07-25T21:50:48.683Z,16.27
2022-07-25T21:53:16.825Z,16.29
2022-07-25T21:55:43.164Z,16.26
2022-07-25T21:58:09.604Z,16.27
2022-07-25T22:00:41.479Z,16.21
2022-07-25T22:03:11.695Z,16.15
2022-07-25T22:05:38.062Z,16.18
2022-07-25T22:08:04.832Z,16.15
2022-07-25T22:10:31.265Z,16.09
2022-07-25T22:12:57.600Z,16.08
2022-07-25T22:15:23.987Z,16.22
2022-07-25T22:17:50.402Z,16.23
2022-07-25T22:20:18.647Z,16.33
2022-07-25T22:22:48.652Z,16.36
2022-07-25T22:25:16.357Z,16.43
2022-07-25T22:27:43.354Z,16.48
2022-07-25T22:30:16.137Z,16.51
2022-07-25T22:32:44.765Z,16.58
2022-07-25T22:35:12.413Z,16.69
2022-07-25T22:37:38.768Z,16.67
2022-07-25T22:40:05.866Z,16.71
2022-07-25T22:42:32.260Z,16.60
2022-07-25T22:44:58.665Z,16.59
2022-07-25T22:47:25.028Z,16.61
2022-07-25T22:49:51.374Z,16.57
2022-07-25T22:52:17.826Z,16.59
2022-07-25T22:54:44.310Z,16.51
2022-07-25T22:57:10.712Z,16.48
2022-07-25T22:59:37.127Z,16.45
2022-07-25T23:02:03.571Z,16.44
2022-07-25T23:04:29.993Z,16.38
2022-07-25T23:06:56.479Z,16.38
2022-07-25T23:09:23.441Z,16.32
2022-07-25T23:11:50.454Z,16.37
2022-07-25T23:14:16.859Z,16.40
2022-07-25T23:16:43.383Z,16.41
2022-07-25T23:19:10.264Z,16.44
2022-07-25T23:21:37.006Z,16.37
2022-07-25T23:24:05.663Z,16.40
2022-07-25T23:26:32.013Z,16.41
2022-07-25T23:28:58.423Z,16.41
2022-07-25T23:31:24.872Z,16.45
2022-07-25T23:33:51.271Z,16.45
2022-07-25T23:36:17.647Z,16.42
2022-07-25T23:38:44.073Z,16.46
2022-07-25T23:41:10.498Z,16.52
2022-07-25T23:43:57.553Z,16.52
2022-07-25T23:46:27.593Z,16.56
2022-07-25T23:48:54.709Z,16.54
2022-07-25T23:51:21.113Z,16.53
2022-07-25T23:53:48.601Z,16.59
2022-07-25T23:56:20.226Z,16.62
2022-07-25T23:58:48.920Z,16.64
